sensor_id;sensor_type;location;lat;lon;timestamp;P1;durP1;ratioP1;P2;durP2;ratioP2
81821;SDS011;72257;52.384;4.882;2023-09-08T00:00:29;7.70;;;5.65;;
81821;SDS011;72257;52.384;4.882;2023-09-08T00:02:55;9.88;;;5.55;;
81821;SDS011;72257;52.384;4.882;2023-09-08T00:05:20;10.75;;;5.75;;
81821;SDS011;72257;52.384;4.882;2023-09-08T00:07:45;8.63;;;6.07;;
81821;SDS011;72257;52.384;4.882;2023-09-08T00:10:11;8.55;;;6.57;;
81821;SDS011;72257;52.384;4.882;2023-09-08T00:12:37;8.80;;;6.15;;
81821;SDS011;72257;52.384;4.882;2023-09-08T00:15:02;9.55;;;5.68;;
81821;SDS011;72257;52.384;4.882;2023-09-08T00:17:28;11.27;;;6.60;;
81821;SDS011;72257;52.384;4.882;2023-09-08T00:19:53;10.00;;;6.30;;
81821;SDS011;72257;52.384;4.882;2023-09-08T00:22:18;7.90;;;5.63;;
81821;SDS011;72257;52.384;4.882;2023-09-08T00:24:44;9.27;;;6.03;;
81821;SDS011;72257;52.384;4.882;2023-09-08T00:27:09;9.10;;;6.63;;
81821;SDS011;72257;52.384;4.882;2023-09-08T00:29:35;8.85;;;6.55;;
81821;SDS011;72257;52.384;4.882;2023-09-08T00:32:00;9.60;;;6.50;;
81821;SDS011;72257;52.384;4.882;2023-09-08T00:34:25;8.73;;;6.30;;
81821;SDS011;72257;52.384;4.882;2023-09-08T00:36:51;9.37;;;6.43;;
81821;SDS011;72257;52.384;4.882;2023-09-08T00:39:16;8.18;;;5.95;;
81821;SDS011;72257;52.384;4.882;2023-09-08T00:41:42;8.50;;;6.50;;
81821;SDS011;72257;52.384;4.882;2023-09-08T00:44:07;8.97;;;6.33;;
81821;SDS011;72257;52.384;4.882;2023-09-08T00:46:34;10.63;;;6.38;;
81821;SDS011;72257;52.384;4.882;2023-09-08T00:49:00;8.48;;;6.40;;
81821;SDS011;72257;52.384;4.882;2023-09-08T00:51:25;8.32;;;6.53;;
81821;SDS011;72257;52.384;4.882;2023-09-08T00:53:51;10.60;;;7.15;;
81821;SDS011;72257;52.384;4.882;2023-09-08T00:56:16;10.23;;;7.28;;
81821;SDS011;72257;52.384;4.882;2023-09-08T00:58:42;8.55;;;6.40;;
81821;SDS011;72257;52.384;4.882;2023-09-08T01:01:08;10.00;;;7.07;;
81821;SDS011;72257;52.384;4.882;2023-09-08T01:03:33;9.10;;;6.53;;
81821;SDS011;72257;52.384;4.882;2023-09-08T01:05:58;11.13;;;6.83;;
81821;SDS011;72257;52.384;4.882;2023-09-08T01:08:25;9.27;;;6.25;;
81821;SDS011;72257;52.384;4.882;2023-09-08T01:10:51;10.45;;;7.22;;
81821;SDS011;72257;52.384;4.882;2023-09-08T01:13:17;8.55;;;6.85;;
81821;SDS011;72257;52.384;4.882;2023-09-08T01:15:42;9.70;;;7.13;;
81821;SDS011;72257;52.384;4.882;2023-09-08T01:18:07;12.13;;;7.20;;
81821;SDS011;72257;52.384;4.882;2023-09-08T01:23:41;11.18;;;7.13;;
81821;SDS011;72257;52.384;4.882;2023-09-08T01:26:21;10.50;;;7.13;;
81821;SDS011;72257;52.384;4.882;2023-09-08T01:28:55;11.43;;;7.38;;
81821;SDS011;72257;52.384;4.882;2023-09-08T01:31:22;11.25;;;7.03;;
81821;SDS011;72257;52.384;4.882;2023-09-08T01:33:47;11.60;;;6.93;;
81821;SDS011;72257;52.384;4.882;2023-09-08T01:36:13;10.93;;;7.00;;
81821;SDS011;72257;52.384;4.882;2023-09-08T01:38:39;9.65;;;6.88;;
81821;SDS011;72257;52.384;4.882;2023-09-08T01:41:04;10.43;;;6.90;;
81821;SDS011;72257;52.384;4.882;2023-09-08T01:43:29;9.30;;;6.70;;
81821;SDS011;72257;52.384;4.882;2023-09-08T01:45:55;12.57;;;7.10;;
81821;SDS011;72257;52.384;4.882;2023-09-08T01:48:20;9.67;;;6.90;;
81821;SDS011;72257;52.384;4.882;2023-09-08T01:50:46;10.63;;;7.45;;
81821;SDS011;72257;52.384;4.882;2023-09-08T01:53:11;11.25;;;7.85;;
81821;SDS011;72257;52.384;4.882;2023-09-08T01:55:37;11.07;;;7.63;;
81821;SDS011;72257;52.384;4.882;2023-09-08T01:58:02;9.87;;;7.53;;
81821;SDS011;72257;52.384;4.882;2023-09-08T02:00:27;10.20;;;7.28;;
81821;SDS011;72257;52.384;4.882;2023-09-08T02:02:53;10.87;;;7.40;;
81821;SDS011;72257;52.384;4.882;2023-09-08T02:05:18;12.50;;;7.47;;
81821;SDS011;72257;52.384;4.882;2023-09-08T02:07:43;10.47;;;7.30;;
81821;SDS011;72257;52.384;4.882;2023-09-08T02:10:08;11.17;;;7.57;;
81821;SDS011;72257;52.384;4.882;2023-09-08T02:12:35;12.10;;;7.80;;
81821;SDS011;72257;52.384;4.882;2023-09-08T02:15:01;9.43;;;7.07;;
81821;SDS011;72257;52.384;4.882;2023-09-08T02:17:26;11.10;;;7.30;;
81821;SDS011;72257;52.384;4.882;2023-09-08T02:19:51;10.03;;;7.10;;
81821;SDS011;72257;52.384;4.882;2023-09-08T02:22:17;11.32;;;7.82;;
81821;SDS011;72257;52.384;4.882;2023-09-08T02:24:42;11.98;;;8.15;;
81821;SDS011;72257;52.384;4.882;2023-09-08T02:27:08;11.23;;;7.50;;
81821;SDS011;72257;52.384;4.882;2023-09-08T02:29:33;12.67;;;8.43;;
81821;SDS011;72257;52.384;4.882;2023-09-08T02:31:58;11.87;;;7.33;;
81821;SDS011;72257;52.384;4.882;2023-09-08T02:34:23;11.60;;;8.53;;
81821;SDS011;72257;52.384;4.882;2023-09-08T02:36:49;11.40;;;7.77;;
81821;SDS011;72257;52.384;4.882;2023-09-08T02:39:15;12.40;;;8.18;;
81821;SDS011;72257;52.384;4.882;2023-09-08T02:41:41;10.82;;;8.00;;
81821;SDS011;72257;52.384;4.882;2023-09-08T02:44:06;10.97;;;7.77;;
81821;SDS011;72257;52.384;4.882;2023-09-08T02:46:31;11.75;;;8.45;;
81821;SDS011;72257;52.384;4.882;2023-09-08T02:48:57;11.93;;;8.20;;
81821;SDS011;72257;52.384;4.882;2023-09-08T02:51:22;12.83;;;8.20;;
81821;SDS011;72257;52.384;4.882;2023-09-08T02:53:47;13.10;;;8.57;;
81821;SDS011;72257;52.384;4.882;2023-09-08T02:56:13;10.23;;;8.13;;
81821;SDS011;72257;52.384;4.882;2023-09-08T02:58:38;13.03;;;9.27;;
81821;SDS011;72257;52.384;4.882;2023-09-08T03:01:13;14.30;;;8.87;;
81821;SDS011;72257;52.384;4.882;2023-09-08T03:03:40;13.02;;;9.43;;
81821;SDS011;72257;52.384;4.882;2023-09-08T03:06:06;12.70;;;8.48;;
81821;SDS011;72257;52.384;4.882;2023-09-08T03:08:31;13.77;;;8.60;;
81821;SDS011;72257;52.384;4.882;2023-09-08T03:10:57;12.00;;;8.55;;
81821;SDS011;72257;52.384;4.882;2023-09-08T03:13:24;11.35;;;7.93;;
81821;SDS011;72257;52.384;4.882;2023-09-08T03:15:51;11.75;;;8.75;;
81821;SDS011;72257;52.384;4.882;2023-09-08T03:18:16;15.25;;;9.10;;
81821;SDS011;72257;52.384;4.882;2023-09-08T03:20:42;12.07;;;8.30;;
81821;SDS011;72257;52.384;4.882;2023-09-08T03:23:08;13.88;;;9.10;;
81821;SDS011;72257;52.384;4.882;2023-09-08T03:25:33;11.90;;;8.20;;
81821;SDS011;72257;52.384;4.882;2023-09-08T03:27:59;12.17;;;8.63;;
81821;SDS011;72257;52.384;4.882;2023-09-08T03:30:24;12.70;;;8.40;;
81821;SDS011;72257;52.384;4.882;2023-09-08T03:32:49;14.10;;;8.17;;
81821;SDS011;72257;52.384;4.882;2023-09-08T03:35:14;13.33;;;8.73;;
81821;SDS011;72257;52.384;4.882;2023-09-08T03:37:40;13.13;;;8.37;;
81821;SDS011;72257;52.384;4.882;2023-09-08T03:40:05;12.67;;;8.43;;
81821;SDS011;72257;52.384;4.882;2023-09-08T03:42:31;12.20;;;8.38;;
81821;SDS011;72257;52.384;4.882;2023-09-08T03:44:57;11.88;;;8.63;;
81821;SDS011;72257;52.384;4.882;2023-09-08T03:47:22;12.03;;;8.20;;
81821;SDS011;72257;52.384;4.882;2023-09-08T03:49:47;12.83;;;8.40;;
81821;SDS011;72257;52.384;4.882;2023-09-08T03:52:13;15.17;;;8.60;;
81821;SDS011;72257;52.384;4.882;2023-09-08T03:54:38;12.73;;;7.93;;
81821;SDS011;72257;52.384;4.882;2023-09-08T03:57:03;14.30;;;8.73;;
81821;SDS011;72257;52.384;4.882;2023-09-08T03:59:29;11.88;;;8.32;;
81821;SDS011;72257;52.384;4.882;2023-09-08T04:01:54;11.50;;;8.07;;
81821;SDS011;72257;52.384;4.882;2023-09-08T04:04:19;12.80;;;8.83;;
81821;SDS011;72257;52.384;4.882;2023-09-08T04:06:45;12.47;;;8.50;;
81821;SDS011;72257;52.384;4.882;2023-09-08T04:09:10;11.67;;;8.60;;
81821;SDS011;72257;52.384;4.882;2023-09-08T04:11:35;13.73;;;9.47;;
81821;SDS011;72257;52.384;4.882;2023-09-08T04:14:01;13.57;;;9.60;;
81821;SDS011;72257;52.384;4.882;2023-09-08T04:16:26;14.37;;;8.40;;
81821;SDS011;72257;52.384;4.882;2023-09-08T04:18:51;10.63;;;7.90;;
81821;SDS011;72257;52.384;4.882;2023-09-08T04:21:16;12.43;;;8.60;;
81821;SDS011;72257;52.384;4.882;2023-09-08T04:23:42;12.87;;;8.53;;
81821;SDS011;72257;52.384;4.882;2023-09-08T04:26:07;12.60;;;8.87;;
81821;SDS011;72257;52.384;4.882;2023-09-08T04:28:32;12.77;;;8.80;;
81821;SDS011;72257;52.384;4.882;2023-09-08T04:30:58;11.00;;;8.33;;
81821;SDS011;72257;52.384;4.882;2023-09-08T04:33:24;12.52;;;9.02;;
81821;SDS011;72257;52.384;4.882;2023-09-08T04:35:49;12.47;;;8.50;;
81821;SDS011;72257;52.384;4.882;2023-09-08T04:38:14;11.40;;;8.43;;
81821;SDS011;72257;52.384;4.882;2023-09-08T04:40:40;11.87;;;8.77;;
81821;SDS011;72257;52.384;4.882;2023-09-08T04:43:06;11.90;;;8.52;;
81821;SDS011;72257;52.384;4.882;2023-09-08T04:45:31;14.17;;;9.60;;
81821;SDS011;72257;52.384;4.882;2023-09-08T04:47:57;13.50;;;8.97;;
81821;SDS011;72257;52.384;4.882;2023-09-08T04:50:22;12.27;;;9.23;;
81821;SDS011;72257;52.384;4.882;2023-09-08T04:52:47;13.97;;;9.33;;
81821;SDS011;72257;52.384;4.882;2023-09-08T04:55:13;12.13;;;8.73;;
81821;SDS011;72257;52.384;4.882;2023-09-08T04:57:38;13.88;;;9.25;;
81821;SDS011;72257;52.384;4.882;2023-09-08T05:00:03;14.97;;;9.90;;
81821;SDS011;72257;52.384;4.882;2023-09-08T05:02:29;12.88;;;9.20;;
81821;SDS011;72257;52.384;4.882;2023-09-08T05:04:54;14.40;;;9.17;;
81821;SDS011;72257;52.384;4.882;2023-09-08T05:07:20;14.20;;;10.13;;
81821;SDS011;72257;52.384;4.882;2023-09-08T05:09:45;13.37;;;9.63;;
81821;SDS011;72257;52.384;4.882;2023-09-08T05:12:10;15.95;;;9.63;;
81821;SDS011;72257;52.384;4.882;2023-09-08T05:14:36;14.43;;;10.27;;
81821;SDS011;72257;52.384;4.882;2023-09-08T05:17:01;15.07;;;10.00;;
81821;SDS011;72257;52.384;4.882;2023-09-08T05:19:27;15.32;;;10.05;;
81821;SDS011;72257;52.384;4.882;2023-09-08T05:21:53;14.17;;;9.50;;
81821;SDS011;72257;52.384;4.882;2023-09-08T05:24:19;13.38;;;9.27;;
81821;SDS011;72257;52.384;4.882;2023-09-08T05:26:45;13.57;;;9.75;;
81821;SDS011;72257;52.384;4.882;2023-09-08T05:29:11;16.33;;;10.23;;
81821;SDS011;72257;52.384;4.882;2023-09-08T05:31:37;15.90;;;9.63;;
81821;SDS011;72257;52.384;4.882;2023-09-08T05:34:02;12.07;;;8.93;;
81821;SDS011;72257;52.384;4.882;2023-09-08T05:36:28;15.15;;;9.68;;
81821;SDS011;72257;52.384;4.882;2023-09-08T05:38:55;14.60;;;10.45;;
81821;SDS011;72257;52.384;4.882;2023-09-08T05:41:20;15.30;;;9.80;;
81821;SDS011;72257;52.384;4.882;2023-09-08T05:43:45;15.53;;;9.50;;
81821;SDS011;72257;52.384;4.882;2023-09-08T05:46:11;14.50;;;10.13;;
81821;SDS011;72257;52.384;4.882;2023-09-08T05:48:36;15.93;;;9.73;;
81821;SDS011;72257;52.384;4.882;2023-09-08T05:51:02;14.68;;;10.35;;
81821;SDS011;72257;52.384;4.882;2023-09-08T05:53:27;15.50;;;9.83;;
81821;SDS011;72257;52.384;4.882;2023-09-08T05:55:53;14.65;;;9.20;;
81821;SDS011;72257;52.384;4.882;2023-09-08T05:58:18;14.02;;;10.27;;
81821;SDS011;72257;52.384;4.882;2023-09-08T06:00:43;14.38;;;9.98;;
81821;SDS011;72257;52.384;4.882;2023-09-08T06:03:09;20.10;;;10.50;;
81821;SDS011;72257;52.384;4.882;2023-09-08T06:05:34;15.23;;;10.53;;
81821;SDS011;72257;52.384;4.882;2023-09-08T06:07:59;16.85;;;10.48;;
81821;SDS011;72257;52.384;4.882;2023-09-08T06:10:25;17.17;;;10.07;;
81821;SDS011;72257;52.384;4.882;2023-09-08T06:12:50;16.27;;;10.47;;
81821;SDS011;72257;52.384;4.882;2023-09-08T06:15:16;16.73;;;10.53;;
81821;SDS011;72257;52.384;4.882;2023-09-08T06:17:42;14.65;;;9.93;;
81821;SDS011;72257;52.384;4.882;2023-09-08T06:20:07;17.80;;;11.00;;
81821;SDS011;72257;52.384;4.882;2023-09-08T06:22:33;14.68;;;10.25;;
81821;SDS011;72257;52.384;4.882;2023-09-08T06:24:59;15.48;;;9.57;;
81821;SDS011;72257;52.384;4.882;2023-09-08T06:27:24;15.67;;;10.73;;
81821;SDS011;72257;52.384;4.882;2023-09-08T06:29:49;17.17;;;10.47;;
81821;SDS011;72257;52.384;4.882;2023-09-08T06:32:15;15.50;;;10.57;;
81821;SDS011;72257;52.384;4.882;2023-09-08T06:34:40;16.67;;;10.57;;
81821;SDS011;72257;52.384;4.882;2023-09-08T06:37:05;16.17;;;10.40;;
81821;SDS011;72257;52.384;4.882;2023-09-08T06:39:31;18.07;;;11.97;;
81821;SDS011;72257;52.384;4.882;2023-09-08T06:41:56;17.97;;;11.40;;
81821;SDS011;72257;52.384;4.882;2023-09-08T06:44:21;17.03;;;11.10;;
81821;SDS011;72257;52.384;4.882;2023-09-08T06:46:46;16.67;;;10.73;;
81821;SDS011;72257;52.384;4.882;2023-09-08T06:49:12;18.17;;;11.43;;
81821;SDS011;72257;52.384;4.882;2023-09-08T06:51:37;18.92;;;11.50;;
81821;SDS011;72257;52.384;4.882;2023-09-08T06:54:03;17.23;;;10.50;;
81821;SDS011;72257;52.384;4.882;2023-09-08T06:56:29;17.35;;;10.43;;
81821;SDS011;72257;52.384;4.882;2023-09-08T06:58:55;17.27;;;11.25;;
81821;SDS011;72257;52.384;4.882;2023-09-08T07:01:22;17.55;;;11.27;;
81821;SDS011;72257;52.384;4.882;2023-09-08T07:03:48;16.50;;;11.40;;
81821;SDS011;72257;52.384;4.882;2023-09-08T07:06:13;17.47;;;11.80;;
81821;SDS011;72257;52.384;4.882;2023-09-08T07:08:38;19.43;;;11.63;;
81821;SDS011;72257;52.384;4.882;2023-09-08T07:11:04;20.47;;;12.03;;
81821;SDS011;72257;52.384;4.882;2023-09-08T07:13:29;19.17;;;11.40;;
81821;SDS011;72257;52.384;4.882;2023-09-08T07:15:54;16.27;;;11.13;;
81821;SDS011;72257;52.384;4.882;2023-09-08T07:18:19;17.73;;;11.47;;
81821;SDS011;72257;52.384;4.882;2023-09-08T07:20:48;16.33;;;11.17;;
81821;SDS011;72257;52.384;4.882;2023-09-08T07:23:16;17.98;;;11.68;;
81821;SDS011;72257;52.384;4.882;2023-09-08T07:25:49;17.63;;;11.13;;
81821;SDS011;72257;52.384;4.882;2023-09-08T07:28:15;17.23;;;11.45;;
81821;SDS011;72257;52.384;4.882;2023-09-08T07:30:40;17.38;;;13.82;;
81821;SDS011;72257;52.384;4.882;2023-09-08T07:33:06;19.70;;;13.30;;
81821;SDS011;72257;52.384;4.882;2023-09-08T07:35:31;20.07;;;12.27;;
81821;SDS011;72257;52.384;4.882;2023-09-08T07:37:57;15.65;;;11.73;;
81821;SDS011;72257;52.384;4.882;2023-09-08T07:40:22;17.55;;;11.82;;
81821;SDS011;72257;52.384;4.882;2023-09-08T07:42:47;16.50;;;12.43;;
81821;SDS011;72257;52.384;4.882;2023-09-08T07:45:13;17.63;;;12.27;;
81821;SDS011;72257;52.384;4.882;2023-09-08T07:47:38;17.40;;;12.25;;
81821;SDS011;72257;52.384;4.882;2023-09-08T07:50:23;18.65;;;12.50;;
81821;SDS011;72257;52.384;4.882;2023-09-08T07:52:54;16.60;;;11.50;;
81821;SDS011;72257;52.384;4.882;2023-09-08T07:55:21;16.95;;;11.63;;
81821;SDS011;72257;52.384;4.882;2023-09-08T07:57:48;17.80;;;11.80;;
81821;SDS011;72257;52.384;4.882;2023-09-08T08:00:14;17.00;;;12.15;;
81821;SDS011;72257;52.384;4.882;2023-09-08T08:02:45;17.27;;;11.50;;
81821;SDS011;72257;52.384;4.882;2023-09-08T08:05:12;18.30;;;13.02;;
81821;SDS011;72257;52.384;4.882;2023-09-08T08:07:38;20.58;;;13.60;;
81821;SDS011;72257;52.384;4.882;2023-09-08T08:10:04;19.88;;;12.68;;
81821;SDS011;72257;52.384;4.882;2023-09-08T08:12:30;18.95;;;12.77;;
81821;SDS011;72257;52.384;4.882;2023-09-08T08:14:56;19.42;;;13.20;;
81821;SDS011;72257;52.384;4.882;2023-09-08T08:17:21;20.08;;;13.73;;
81821;SDS011;72257;52.384;4.882;2023-09-08T08:19:46;20.15;;;12.82;;
81821;SDS011;72257;52.384;4.882;2023-09-08T08:22:12;22.13;;;15.05;;
81821;SDS011;72257;52.384;4.882;2023-09-08T08:24:37;18.23;;;13.00;;
81821;SDS011;72257;52.384;4.882;2023-09-08T08:27:03;22.23;;;13.70;;
81821;SDS011;72257;52.384;4.882;2023-09-08T08:29:29;21.17;;;14.77;;
81821;SDS011;72257;52.384;4.882;2023-09-08T08:31:54;21.40;;;14.32;;
81821;SDS011;72257;52.384;4.882;2023-09-08T08:34:20;21.05;;;14.85;;
81821;SDS011;72257;52.384;4.882;2023-09-08T08:36:45;23.33;;;14.73;;
81821;SDS011;72257;52.384;4.882;2023-09-08T08:39:11;24.63;;;14.97;;
81821;SDS011;72257;52.384;4.882;2023-09-08T08:41:36;19.23;;;13.20;;
81821;SDS011;72257;52.384;4.882;2023-09-08T08:44:05;20.60;;;14.18;;
81821;SDS011;72257;52.384;4.882;2023-09-08T08:46:33;22.63;;;13.70;;
81821;SDS011;72257;52.384;4.882;2023-09-08T08:48:59;22.58;;;14.80;;
81821;SDS011;72257;52.384;4.882;2023-09-08T08:51:27;30.75;;;15.95;;
81821;SDS011;72257;52.384;4.882;2023-09-08T08:53:54;20.35;;;13.73;;
81821;SDS011;72257;52.384;4.882;2023-09-08T08:56:20;20.70;;;13.88;;
81821;SDS011;72257;52.384;4.882;2023-09-08T08:58:45;18.80;;;13.93;;
81821;SDS011;72257;52.384;4.882;2023-09-08T09:01:11;18.38;;;12.98;;
81821;SDS011;72257;52.384;4.882;2023-09-08T09:03:38;21.25;;;13.93;;
81821;SDS011;72257;52.384;4.882;2023-09-08T09:08:30;18.30;;;13.40;;
81821;SDS011;72257;52.384;4.882;2023-09-08T09:10:56;17.83;;;13.68;;
81821;SDS011;72257;52.384;4.882;2023-09-08T09:13:21;18.90;;;12.05;;
81821;SDS011;72257;52.384;4.882;2023-09-08T09:15:48;20.50;;;13.30;;
81821;SDS011;72257;52.384;4.882;2023-09-08T09:18:14;16.95;;;12.23;;
81821;SDS011;72257;52.384;4.882;2023-09-08T09:20:40;19.53;;;12.20;;
81821;SDS011;72257;52.384;4.882;2023-09-08T09:23:06;19.88;;;13.13;;
81821;SDS011;72257;52.384;4.882;2023-09-08T09:25:32;17.90;;;12.35;;
81821;SDS011;72257;52.384;4.882;2023-09-08T09:28:01;17.15;;;11.40;;
81821;SDS011;72257;52.384;4.882;2023-09-08T09:30:28;17.63;;;11.75;;
81821;SDS011;72257;52.384;4.882;2023-09-08T09:33:11;16.92;;;12.18;;
81821;SDS011;72257;52.384;4.882;2023-09-08T09:35:41;17.80;;;12.53;;
81821;SDS011;72257;52.384;4.882;2023-09-08T09:38:10;18.00;;;11.68;;
81821;SDS011;72257;52.384;4.882;2023-09-08T09:40:36;21.80;;;12.65;;
81821;SDS011;72257;52.384;4.882;2023-09-08T09:43:03;13.05;;;10.77;;
81821;SDS011;72257;52.384;4.882;2023-09-08T09:45:30;15.70;;;11.80;;
81821;SDS011;72257;52.384;4.882;2023-09-08T09:47:56;14.82;;;10.93;;
81821;SDS011;72257;52.384;4.882;2023-09-08T09:50:28;15.25;;;10.93;;
81821;SDS011;72257;52.384;4.882;2023-09-08T09:53:00;14.55;;;11.20;;
81821;SDS011;72257;52.384;4.882;2023-09-08T09:55:28;16.58;;;12.75;;
81821;SDS011;72257;52.384;4.882;2023-09-08T09:57:57;20.27;;;13.52;;
81821;SDS011;72257;52.384;4.882;2023-09-08T10:00:29;18.85;;;12.63;;
81821;SDS011;72257;52.384;4.882;2023-09-08T10:02:55;15.80;;;12.95;;
81821;SDS011;72257;52.384;4.882;2023-09-08T10:05:23;17.75;;;12.88;;
81821;SDS011;72257;52.384;4.882;2023-09-08T10:07:50;16.00;;;12.55;;
81821;SDS011;72257;52.384;4.882;2023-09-08T10:10:16;20.02;;;13.38;;
81821;SDS011;72257;52.384;4.882;2023-09-08T10:12:43;18.77;;;13.05;;
81821;SDS011;72257;52.384;4.882;2023-09-08T10:15:12;18.90;;;13.98;;
81821;SDS011;72257;52.384;4.882;2023-09-08T10:17:41;16.92;;;12.80;;
81821;SDS011;72257;52.384;4.882;2023-09-08T10:20:09;19.13;;;14.38;;
81821;SDS011;72257;52.384;4.882;2023-09-08T10:22:39;15.35;;;11.38;;
81821;SDS011;72257;52.384;4.882;2023-09-08T10:25:07;25.88;;;14.85;;
81821;SDS011;72257;52.384;4.882;2023-09-08T10:27:34;19.98;;;12.27;;
81821;SDS011;72257;52.384;4.882;2023-09-08T10:30:01;20.05;;;13.65;;
81821;SDS011;72257;52.384;4.882;2023-09-08T10:32:29;18.48;;;13.38;;
81821;SDS011;72257;52.384;4.882;2023-09-08T10:34:56;17.20;;;12.07;;
81821;SDS011;72257;52.384;4.882;2023-09-08T10:37:24;18.08;;;11.82;;
81821;SDS011;72257;52.384;4.882;2023-09-08T10:39:50;19.20;;;12.85;;
81821;SDS011;72257;52.384;4.882;2023-09-08T10:47:14;14.88;;;11.52;;
81821;SDS011;72257;52.384;4.882;2023-09-08T10:49:43;14.57;;;11.20;;
81821;SDS011;72257;52.384;4.882;2023-09-08T10:52:11;15.95;;;10.85;;
81821;SDS011;72257;52.384;4.882;2023-09-08T10:54:40;16.13;;;12.02;;
81821;SDS011;72257;52.384;4.882;2023-09-08T10:57:13;13.60;;;10.68;;
81821;SDS011;72257;52.384;4.882;2023-09-08T10:59:40;12.60;;;8.73;;
81821;SDS011;72257;52.384;4.882;2023-09-08T11:02:31;16.15;;;10.27;;
81821;SDS011;72257;52.384;4.882;2023-09-08T11:07:35;11.30;;;8.85;;
81821;SDS011;72257;52.384;4.882;2023-09-08T11:10:02;18.38;;;11.18;;
81821;SDS011;72257;52.384;4.882;2023-09-08T11:12:28;12.00;;;9.65;;
81821;SDS011;72257;52.384;4.882;2023-09-08T11:14:53;12.45;;;9.38;;
81821;SDS011;72257;52.384;4.882;2023-09-08T11:17:19;13.60;;;10.55;;
81821;SDS011;72257;52.384;4.882;2023-09-08T11:19:48;15.67;;;11.60;;
81821;SDS011;72257;52.384;4.882;2023-09-08T11:22:15;14.43;;;10.07;;
81821;SDS011;72257;52.384;4.882;2023-09-08T11:24:42;14.65;;;9.82;;
81821;SDS011;72257;52.384;4.882;2023-09-08T11:27:08;11.73;;;9.60;;
81821;SDS011;72257;52.384;4.882;2023-09-08T11:29:37;15.45;;;10.27;;
81821;SDS011;72257;52.384;4.882;2023-09-08T11:32:05;13.10;;;10.40;;
81821;SDS011;72257;52.384;4.882;2023-09-08T11:34:34;12.88;;;9.45;;
81821;SDS011;72257;52.384;4.882;2023-09-08T11:37:00;13.30;;;8.90;;
81821;SDS011;72257;52.384;4.882;2023-09-08T11:39:35;15.50;;;10.98;;
81821;SDS011;72257;52.384;4.882;2023-09-08T11:42:01;13.55;;;7.72;;
81821;SDS011;72257;52.384;4.882;2023-09-08T11:44:27;10.70;;;8.23;;
81821;SDS011;72257;52.384;4.882;2023-09-08T11:46:53;11.38;;;8.82;;
81821;SDS011;72257;52.384;4.882;2023-09-08T11:49:19;10.13;;;7.75;;
81821;SDS011;72257;52.384;4.882;2023-09-08T11:51:45;9.88;;;8.63;;
81821;SDS011;72257;52.384;4.882;2023-09-08T11:54:10;12.50;;;9.47;;
81821;SDS011;72257;52.384;4.882;2023-09-08T11:56:37;12.40;;;9.00;;
81821;SDS011;72257;52.384;4.882;2023-09-08T11:59:02;11.63;;;9.35;;
81821;SDS011;72257;52.384;4.882;2023-09-08T12:01:28;13.20;;;9.45;;
81821;SDS011;72257;52.384;4.882;2023-09-08T12:03:54;10.20;;;8.45;;
81821;SDS011;72257;52.384;4.882;2023-09-08T12:06:23;11.98;;;8.80;;
81821;SDS011;72257;52.384;4.882;2023-09-08T12:08:55;9.55;;;8.10;;
81821;SDS011;72257;52.384;4.882;2023-09-08T12:11:21;10.90;;;8.75;;
81821;SDS011;72257;52.384;4.882;2023-09-08T12:13:46;10.65;;;8.23;;
81821;SDS011;72257;52.384;4.882;2023-09-08T12:16:21;10.23;;;8.23;;
81821;SDS011;72257;52.384;4.882;2023-09-08T12:18:49;9.98;;;7.95;;
81821;SDS011;72257;52.384;4.882;2023-09-08T12:21:15;9.55;;;7.55;;
81821;SDS011;72257;52.384;4.882;2023-09-08T12:23:47;16.67;;;11.45;;
81821;SDS011;72257;52.384;4.882;2023-09-08T12:26:14;12.35;;;9.32;;
81821;SDS011;72257;52.384;4.882;2023-09-08T12:28:41;13.85;;;10.00;;
81821;SDS011;72257;52.384;4.882;2023-09-08T12:31:07;16.40;;;11.73;;
81821;SDS011;72257;52.384;4.882;2023-09-08T12:33:33;11.77;;;9.00;;
81821;SDS011;72257;52.384;4.882;2023-09-08T12:35:59;13.73;;;10.25;;
81821;SDS011;72257;52.384;4.882;2023-09-08T12:38:30;13.80;;;10.40;;
81821;SDS011;72257;52.384;4.882;2023-09-08T12:40:56;12.77;;;10.20;;
81821;SDS011;72257;52.384;4.882;2023-09-08T12:43:22;10.10;;;6.90;;
81821;SDS011;72257;52.384;4.882;2023-09-08T12:45:47;12.23;;;9.87;;
81821;SDS011;72257;52.384;4.882;2023-09-08T12:48:12;10.00;;;8.37;;
81821;SDS011;72257;52.384;4.882;2023-09-08T12:50:38;9.27;;;7.80;;
81821;SDS011;72257;52.384;4.882;2023-09-08T12:53:03;13.27;;;9.13;;
81821;SDS011;72257;52.384;4.882;2023-09-08T12:55:28;12.68;;;9.40;;
81821;SDS011;72257;52.384;4.882;2023-09-08T12:57:54;15.63;;;10.90;;
81821;SDS011;72257;52.384;4.882;2023-09-08T13:00:20;12.15;;;10.18;;
81821;SDS011;72257;52.384;4.882;2023-09-08T13:02:48;10.98;;;8.48;;
81821;SDS011;72257;52.384;4.882;2023-09-08T13:05:13;8.07;;;6.35;;
81821;SDS011;72257;52.384;4.882;2023-09-08T13:07:38;9.90;;;6.57;;
81821;SDS011;72257;52.384;4.882;2023-09-08T13:10:04;9.20;;;7.90;;
81821;SDS011;72257;52.384;4.882;2023-09-08T13:12:30;8.05;;;6.50;;
81821;SDS011;72257;52.384;4.882;2023-09-08T13:14:56;6.80;;;5.82;;
81821;SDS011;72257;52.384;4.882;2023-09-08T13:17:21;9.60;;;6.60;;
81821;SDS011;72257;52.384;4.882;2023-09-08T13:19:47;9.77;;;6.93;;
81821;SDS011;72257;52.384;4.882;2023-09-08T13:22:12;8.23;;;5.28;;
81821;SDS011;72257;52.384;4.882;2023-09-08T13:24:38;8.48;;;5.95;;
81821;SDS011;72257;52.384;4.882;2023-09-08T13:27:04;12.55;;;9.90;;
81821;SDS011;72257;52.384;4.882;2023-09-08T13:29:30;8.32;;;6.57;;
81821;SDS011;72257;52.384;4.882;2023-09-08T13:31:55;8.53;;;7.73;;
81821;SDS011;72257;52.384;4.882;2023-09-08T13:34:22;9.60;;;7.18;;
81821;SDS011;72257;52.384;4.882;2023-09-08T13:36:48;8.30;;;7.50;;
81821;SDS011;72257;52.384;4.882;2023-09-08T13:39:13;12.77;;;9.55;;
81821;SDS011;72257;52.384;4.882;2023-09-08T13:41:50;11.68;;;9.45;;
81821;SDS011;72257;52.384;4.882;2023-09-08T13:44:19;11.82;;;7.78;;
81821;SDS011;72257;52.384;4.882;2023-09-08T13:46:46;11.77;;;8.88;;
81821;SDS011;72257;52.384;4.882;2023-09-08T13:49:12;11.23;;;8.43;;
81821;SDS011;72257;52.384;4.882;2023-09-08T13:51:38;9.82;;;7.05;;
81821;SDS011;72257;52.384;4.882;2023-09-08T13:54:03;12.57;;;8.40;;
81821;SDS011;72257;52.384;4.882;2023-09-08T13:56:29;12.02;;;8.90;;
81821;SDS011;72257;52.384;4.882;2023-09-08T13:58:54;13.80;;;9.37;;
81821;SDS011;72257;52.384;4.882;2023-09-08T14:01:19;10.20;;;9.10;;
81821;SDS011;72257;52.384;4.882;2023-09-08T14:03:45;11.13;;;9.73;;
81821;SDS011;72257;52.384;4.882;2023-09-08T14:06:10;15.33;;;10.17;;
81821;SDS011;72257;52.384;4.882;2023-09-08T14:08:35;12.27;;;9.53;;
81821;SDS011;72257;52.384;4.882;2023-09-08T14:11:01;12.77;;;8.90;;
81821;SDS011;72257;52.384;4.882;2023-09-08T14:13:26;13.93;;;10.20;;
81821;SDS011;72257;52.384;4.882;2023-09-08T14:15:51;11.57;;;9.70;;
81821;SDS011;72257;52.384;4.882;2023-09-08T14:18:18;15.90;;;11.02;;
81821;SDS011;72257;52.384;4.882;2023-09-08T14:20:43;11.90;;;9.82;;
81821;SDS011;72257;52.384;4.882;2023-09-08T14:23:09;12.63;;;10.47;;
81821;SDS011;72257;52.384;4.882;2023-09-08T14:25:34;12.20;;;10.43;;
81821;SDS011;72257;52.384;4.882;2023-09-08T14:28:00;12.43;;;9.80;;
81821;SDS011;72257;52.384;4.882;2023-09-08T14:30:29;13.80;;;11.27;;
81821;SDS011;72257;52.384;4.882;2023-09-08T14:32:55;11.90;;;10.70;;
81821;SDS011;72257;52.384;4.882;2023-09-08T14:35:23;12.60;;;9.85;;
81821;SDS011;72257;52.384;4.882;2023-09-08T14:37:48;17.33;;;12.95;;